Time;durP1;ratioP1;P1;durP2;ratioP2;P2;SDS_P1;SDS_P2;PMS_P1;PMS_P2;Temp;Humidity;BMP_temperature;BMP_pressure;BME280_temperature;BME280_humidity;BME280_pressure;Samples;Min_cycle;Max_cycle;Signal;HPM_P1;HPM_P2
2021/06/27 00:00:29;;;;;;;14.80;12.93;;;18.70;88.40;;;;;;5028115;28;20428;-82
2021/06/27 00:02:56;;;;;;;13.90;12.50;;;18.60;89.00;;;;;;5036351;28;20454;-83
2021/06/27 00:05:27;;;;;;;13.37;11.97;;;18.60;88.80;;;;;;5040260;28;20762;-82
2021/06/27 00:07:55;;;;;;;14.80;13.50;;;18.60;89.10;;;;;;5040583;28;20454;-82
2021/06/27 00:10:25;;;;;;;15.10;13.60;;;18.50;89.00;;;;;;5040484;28;20454;-82
2021/06/27 00:12:52;;;;;;;14.37;12.97;;;18.50;89.20;;;;;;5040342;28;20428;-82
2021/06/27 00:15:22;;;;;;;13.80;12.40;;;18.50;89.20;;;;;;5037575;28;20463;-83
2021/06/27 00:17:50;;;;;;;15.20;13.63;;;18.50;90.00;;;;;;5060332;22;20508;-78
2021/06/27 00:20:20;;;;;;;13.37;12.07;;;18.40;90.50;;;;;;5055929;28;20475;-78
2021/06/27 00:22:47;;;;;;;13.97;12.67;;;18.40;90.70;;;;;;5055397;28;20974;-79
2021/06/27 00:25:19;;;;;;;16.40;13.30;;;18.30;91.00;;;;;;5043338;28;20530;-78
2021/06/27 00:27:47;;;;;;;14.50;13.00;;;18.30;91.00;;;;;;5035959;28;21008;-79
2021/06/27 00:30:15;;;;;;;14.30;12.80;;;18.20;91.00;;;;;;5036143;28;20485;-79
2021/06/27 00:32:43;;;;;;;18.93;14.80;;;18.20;91.60;;;;;;5035167;28;20504;-79
2021/06/27 00:35:12;;;;;;;15.60;14.00;;;18.10;92.00;;;;;;5045021;28;20554;-79
2021/06/27 00:37:39;;;;;;;15.60;14.03;;;18.10;92.30;;;;;;5055346;28;20488;-78
2021/06/27 00:40:09;;;;;;;15.17;13.57;;;18.10;92.80;;;;;;5045872;28;20544;-79
2021/06/27 00:42:38;;;;;;;15.33;13.83;;;18.00;92.90;;;;;;5035047;28;20426;-78
2021/06/27 00:45:07;;;;;;;15.80;14.40;;;18.00;92.80;;;;;;5042058;28;20511;-79
2021/06/27 00:47:37;;;;;;;17.07;14.10;;;18.00;92.80;;;;;;5056642;28;20516;-79
2021/06/27 00:50:05;;;;;;;16.30;13.97;;;18.00;92.70;;;;;;5047999;28;20441;-78
2021/06/27 00:52:32;;;;;;;15.97;14.47;;;18.00;92.80;;;;;;5036233;28;20481;-79
2021/06/27 00:54:59;;;;;;;16.17;14.53;;;18.00;92.70;;;;;;5036796;28;20466;-79
2021/06/27 00:57:26;;;;;;;16.27;14.67;;;18.00;92.80;;;;;;5035699;28;21071;-79
2021/06/27 00:59:54;;;;;;;15.43;14.03;;;18.00;92.90;;;;;;5044828;28;20531;-79
2021/06/27 01:02:21;;;;;;;15.97;14.27;;;18.00;92.70;;;;;;5055144;28;20933;-79
2021/06/27 01:04:48;;;;;;;16.00;14.30;;;18.00;92.60;;;;;;5044112;28;20500;-79
2021/06/27 01:07:15;;;;;;;16.77;13.80;;;18.00;92.40;;;;;;5034481;28;20521;-79
2021/06/27 01:09:41;;;;;;;16.20;14.70;;;18.00;92.40;;;;;;5042716;28;20442;-79
2021/06/27 01:12:09;;;;;;;15.30;13.90;;;17.90;92.60;;;;;;5054307;28;20544;-79
2021/06/27 01:14:36;;;;;;;16.23;14.63;;;17.90;92.80;;;;;;5052521;28;20455;-78
2021/06/27 01:17:05;;;;;;;16.03;14.33;;;17.90;93.30;;;;;;5046767;28;20944;-79
2021/06/27 01:19:32;;;;;;;16.43;14.63;;;17.80;93.50;;;;;;5035637;28;20460;-79
2021/06/27 01:22:01;;;;;;;16.20;14.60;;;17.80;93.40;;;;;;5036985;28;20452;-79
2021/06/27 01:24:29;;;;;;;16.73;15.10;;;17.80;93.50;;;;;;5035850;28;20498;-79
2021/06/27 01:26:56;;;;;;;16.03;14.37;;;17.80;93.60;;;;;;5037227;28;20433;-79
2021/06/27 01:29:23;;;;;;;15.60;13.93;;;17.80;93.60;;;;;;5036136;28;20479;-79
2021/06/27 01:31:51;;;;;;;16.87;15.17;;;17.80;93.60;;;;;;5035763;28;20486;-79
2021/06/27 01:34:18;;;;;;;15.83;14.17;;;17.70;93.80;;;;;;5035598;28;20545;-79
2021/06/27 01:36:45;;;;;;;16.23;14.53;;;17.80;93.80;;;;;;5052329;28;20489;-79
2021/06/27 01:39:13;;;;;;;16.80;14.80;;;17.80;93.60;;;;;;5055456;28;20421;-80
2021/06/27 01:41:49;;;;;;;16.53;14.30;;;17.70;93.60;;;;;;5040956;28;20532;-77
2021/06/27 01:44:16;;;;;;;15.73;14.30;;;17.70;93.70;;;;;;5039137;28;20532;-79
2021/06/27 01:46:43;;;;;;;15.33;13.83;;;17.70;93.90;;;;;;5040506;28;20519;-79
2021/06/27 01:49:11;;;;;;;15.57;13.47;;;17.70;93.90;;;;;;5035324;28;21030;-78
2021/06/27 01:51:39;;;;;;;15.00;13.50;;;17.60;94.30;;;;;;5033690;28;20437;-78
2021/06/27 01:54:07;;;;;;;15.90;14.33;;;17.60;94.40;;;;;;5034131;28;20463;-79
2021/06/27 01:56:35;;;;;;;15.97;14.37;;;17.50;94.40;;;;;;5035619;28;20527;-79
2021/06/27 01:59:03;;;;;;;14.90;13.33;;;17.50;94.40;;;;;;5037685;28;20450;-79
2021/06/27 02:01:32;;;;;;;15.40;13.80;;;17.50;94.60;;;;;;5035069;28;20512;-79
2021/06/27 02:03:59;;;;;;;14.63;13.20;;;17.50;94.50;;;;;;5035606;28;20466;-79
2021/06/27 02:06:29;;;;;;;16.43;13.80;;;17.50;94.70;;;;;;5039391;28;20539;-80
2021/06/27 02:08:58;;;;;;;15.63;14.13;;;17.50;94.70;;;;;;5054799;28;20465;-78
2021/06/27 02:11:26;;;;;;;18.20;14.40;;;17.50;94.40;;;;;;5038961;28;20484;-80
2021/06/27 02:13:56;;;;;;;19.93;14.23;;;17.50;94.60;;;;;;5058072;28;20417;-80
2021/06/27 02:16:23;;;;;;;18.10;14.70;;;17.50;94.60;;;;;;5077694;28;20469;-81
2021/06/27 02:18:51;;;;;;;15.80;14.17;;;17.50;94.40;;;;;;5056163;28;20541;-78
2021/06/27 02:21:21;;;;;;;16.50;13.93;;;17.50;94.40;;;;;;5057665;28;20552;-79
2021/06/27 02:23:48;;;;;;;15.80;13.53;;;17.50;94.20;;;;;;5069359;28;20428;-79
2021/06/27 02:26:15;;;;;;;14.40;12.90;;;17.50;94.10;;;;;;5064556;28;20457;-78
2021/06/27 02:28:43;;;;;;;14.57;12.70;;;17.50;94.30;;;;;;5061331;28;20502;-78
2021/06/27 02:31:11;;;;;;;17.93;13.30;;;17.50;94.30;;;;;;5056131;28;20544;-79
2021/06/27 02:33:39;;;;;;;15.80;13.00;;;17.40;94.40;;;;;;5055187;28;20545;-79
2021/06/27 02:36:07;;;;;;;14.13;12.73;;;17.40;94.30;;;;;;5058955;28;20489;-78
2021/06/27 02:38:34;;;;;;;15.60;12.83;;;17.40;94.40;;;;;;5055163;28;20469;-80
2021/06/27 02:41:01;;;;;;;14.37;12.87;;;17.40;94.30;;;;;;5057676;28;20450;-79
2021/06/27 02:43:28;;;;;;;15.37;13.77;;;17.30;94.60;;;;;;5056828;28;20429;-79
2021/06/27 02:45:55;;;;;;;15.83;14.23;;;17.30;94.90;;;;;;5058165;28;20446;-79
2021/06/27 02:48:24;;;;;;;14.10;12.57;;;17.30;95.10;;;;;;5044414;28;20425;-79
2021/06/27 02:50:51;;;;;;;14.97;13.47;;;17.30;95.20;;;;;;5040003;28;20441;-80
2021/06/27 02:53:18;;;;;;;14.33;13.03;;;17.30;95.20;;;;;;5054100;28;20453;-79
2021/06/27 02:55:45;;;;;;;15.93;14.30;;;17.30;95.30;;;;;;5062431;28;20514;-78
2021/06/27 02:58:12;;;;;;;14.90;13.20;;;17.30;94.90;;;;;;5061203;28;20957;-79
2021/06/27 03:00:40;;;;;;;16.40;14.70;;;17.30;94.70;;;;;;5061928;28;20516;-80
2021/06/27 03:03:06;;;;;;;14.23;12.87;;;17.30;94.30;;;;;;5065768;28;20465;-80
2021/06/27 03:05:35;;;;;;;15.90;14.30;;;17.30;94.30;;;;;;5051562;28;20464;-78
2021/06/27 03:08:02;;;;;;;14.43;12.93;;;17.30;94.30;;;;;;5064165;28;20454;-80
2021/06/27 03:10:29;;;;;;;15.87;14.17;;;17.30;94.30;;;;;;5056781;28;20512;-80
2021/06/27 03:12:55;;;;;;;14.93;13.07;;;17.30;94.30;;;;;;5053246;28;20433;-79
2021/06/27 03:15:22;;;;;;;17.30;13.10;;;17.30;94.30;;;;;;5050432;28;20433;-79
2021/06/27 03:17:50;;;;;;;16.33;13.40;;;17.30;94.30;;;;;;5048790;28;20491;-79
2021/06/27 03:20:18;;;;;;;14.80;13.33;;;17.30;94.60;;;;;;5064418;28;20454;-79
2021/06/27 03:22:47;;;;;;;15.20;13.37;;;17.30;94.70;;;;;;5072471;28;20462;-79
2021/06/27 03:25:16;;;;;;;15.03;13.20;;;17.20;95.10;;;;;;5073088;28;20468;-78
2021/06/27 03:27:43;;;;;;;15.57;13.97;;;17.20;95.20;;;;;;5071927;28;20499;-79
2021/06/27 03:30:12;;;;;;;14.23;12.70;;;17.20;95.10;;;;;;5062306;28;20434;-78
2021/06/27 03:32:39;;;;;;;14.60;12.80;;;17.20;95.10;;;;;;5058401;28;20460;-79
2021/06/27 03:35:07;;;;;;;14.03;12.60;;;17.20;94.80;;;;;;5056856;28;20971;-80
2021/06/27 03:37:34;;;;;;;16.57;12.63;;;17.20;94.70;;;;;;5061308;28;20464;-79
2021/06/27 03:40:04;;;;;;;13.60;11.70;;;17.30;94.70;;;;;;5079131;28;20432;-76
2021/06/27 03:42:31;;;;;;;14.13;12.80;;;17.30;94.30;;;;;;5081173;28;20433;-77
2021/06/27 03:44:57;;;;;;;14.53;13.03;;;17.20;94.20;;;;;;5076276;28;20439;-76
2021/06/27 03:47:25;;;;;;;15.57;13.33;;;17.30;94.30;;;;;;5060845;28;20459;-77
2021/06/27 03:49:52;;;;;;;14.20;12.30;;;17.30;94.30;;;;;;5063466;28;20445;-77
2021/06/27 03:52:20;;;;;;;13.27;12.03;;;17.40;93.70;;;;;;5074939;28;20446;-79
2021/06/27 03:54:47;;;;;;;12.70;11.50;;;17.40;93.10;;;;;;5063340;28;20454;-79
2021/06/27 03:57:15;;;;;;;13.37;11.90;;;17.50;92.50;;;;;;5045112;28;20462;-79
2021/06/27 03:59:42;;;;;;;12.53;11.40;;;17.60;91.70;;;;;;5046689;28;20466;-80
2021/06/27 04:02:09;;;;;;;12.73;10.93;;;17.70;91.30;;;;;;5065412;28;20523;-80
2021/06/27 04:04:36;;;;;;;12.17;10.90;;;17.70;90.70;;;;;;5066978;28;20436;-80
2021/06/27 04:07:03;;;;;;;12.27;11.17;;;17.80;90.80;;;;;;5054591;28;20962;-80
2021/06/27 04:09:30;;;;;;;12.60;11.40;;;17.90;90.40;;;;;;5065237;28;20430;-79
2021/06/27 04:11:57;;;;;;;12.43;11.23;;;17.90;89.30;;;;;;5046997;28;20474;-79
2021/06/27 04:14:25;;;;;;;12.13;10.93;;;18.00;88.80;;;;;;5043762;28;20430;-80
2021/06/27 04:16:52;;;;;;;14.37;10.57;;;18.10;87.30;;;;;;5060789;28;20495;-80
2021/06/27 04:19:19;;;;;;;12.10;10.70;;;18.10;86.10;;;;;;5066172;28;20465;-81
2021/06/27 04:21:46;;;;;;;13.10;11.90;;;18.20;85.00;;;;;;5048800;28;20902;-80
2021/06/27 04:24:13;;;;;;;13.23;11.60;;;18.20;85.10;;;;;;5045692;28;20454;-79
2021/06/27 04:26:40;;;;;;;12.70;11.50;;;18.10;85.50;;;;;;5056950;28;20484;-80
2021/06/27 04:29:11;;;;;;;13.40;12.00;;;18.20;85.90;;;;;;5062364;28;20456;-80
2021/06/27 04:31:40;;;;;;;12.10;10.87;;;18.20;86.00;;;;;;5049165;28;20469;-80
2021/06/27 04:34:07;;;;;;;14.77;11.37;;;18.20;84.90;;;;;;5044519;28;20464;-80
2021/06/27 04:36:34;;;;;;;12.07;10.97;;;18.20;85.30;;;;;;5066230;28;20463;-79
2021/06/27 04:39:01;;;;;;;12.17;11.00;;;18.20;85.00;;;;;;5060345;28;20439;-80
2021/06/27 04:41:28;;;;;;;11.53;10.00;;;18.20;84.60;;;;;;5042129;28;20489;-79
2021/06/27 04:43:56;;;;;;;12.13;10.93;;;18.20;85.00;;;;;;5042661;28;20523;-80
2021/06/27 04:46:23;;;;;;;12.70;11.50;;;18.20;85.80;;;;;;5062190;28;20531;-78
2021/06/27 04:48:51;;;;;;;12.50;11.20;;;18.20;85.70;;;;;;5064007;28;20487;-80
2021/06/27 04:51:18;;;;;;;11.07;10.00;;;18.40;84.00;;;;;;5068576;28;20796;-80
2021/06/27 04:53:45;;;;;;;12.83;11.60;;;18.50;84.00;;;;;;5063800;28;20463;-80
2021/06/27 04:56:12;;;;;;;11.00;9.90;;;18.80;81.50;;;;;;5044948;28;20459;-80
2021/06/27 04:58:39;;;;;;;10.97;9.37;;;19.60;76.40;;;;;;5042338;28;20814;-82
2021/06/27 05:01:06;;;;;;;12.40;10.07;;;20.20;71.30;;;;;;5059248;28;20432;-79
2021/06/27 05:03:34;;;;;;;8.83;8.03;;;21.20;66.40;;;;;;5063878;28;20434;-78
2021/06/27 05:06:03;;;;;;;9.47;8.30;;;21.30;62.60;;;;;;5048882;28;20468;-79
2021/06/27 05:08:30;;;;;;;10.23;9.20;;;20.80;63.00;;;;;;5043618;28;20423;-77
2021/06/27 05:10:58;;;;;;;10.30;9.40;;;20.30;65.60;;;;;;5060403;28;20463;-78
2021/06/27 05:13:25;;;;;;;10.10;9.20;;;19.70;69.50;;;;;;5075390;28;20419;-79
2021/06/27 05:15:52;;;;;;;11.43;9.60;;;19.70;71.00;;;;;;5061330;28;20431;-77
2021/06/27 05:18:20;;;;;;;10.33;9.43;;;19.70;70.30;;;;;;5045808;28;20460;-79
2021/06/27 05:20:48;;;;;;;9.73;8.93;;;19.50;71.60;;;;;;5043254;28;20994;-78
2021/06/27 05:23:17;;;;;;;10.87;8.60;;;19.80;70.30;;;;;;5043733;28;20480;-79
2021/06/27 05:25:44;;;;;;;10.30;8.27;;;20.40;68.20;;;;;;5044463;28;20966;-79
2021/06/27 05:28:12;;;;;;;8.80;8.10;;;21.10;63.30;;;;;;5045245;28;20428;-79
2021/06/27 05:30:39;;;;;;;9.00;8.30;;;22.20;60.70;;;;;;5059642;28;20430;-78
2021/06/27 05:33:06;;;;;;;8.77;7.97;;;23.00;54.70;;;;;;5067977;28;20494;-79
2021/06/27 05:35:34;;;;;;;9.57;8.70;;;22.40;54.80;;;;;;5043325;28;20489;-80
2021/06/27 05:38:01;;;;;;;9.57;8.70;;;21.80;56.90;;;;;;5044228;28;20460;-79
2021/06/27 05:40:29;;;;;;;9.37;8.57;;;21.70;59.70;;;;;;5065362;28;20457;-78
2021/06/27 05:42:56;;;;;;;8.27;7.57;;;22.30;56.60;;;;;;5060863;28;20492;-80
2021/06/27 05:45:24;;;;;;;7.13;6.63;;;23.30;51.90;;;;;;5038960;28;20522;-80
2021/06/27 05:47:51;;;;;;;8.47;7.67;;;23.70;50.30;;;;;;5042803;28;20480;-79
2021/06/27 05:50:17;;;;;;;7.73;7.13;;;23.50;51.50;;;;;;5060602;28;20498;-79
2021/06/27 05:52:44;;;;;;;9.27;7.20;;;23.40;52.00;;;;;;5058328;28;20457;-80
2021/06/27 05:55:12;;;;;;;7.80;7.20;;;23.80;49.40;;;;;;5041359;28;20489;-79
2021/06/27 05:57:40;;;;;;;9.07;7.53;;;22.50;52.00;;;;;;5041974;28;20886;-80
2021/06/27 06:00:08;;;;;;;8.10;7.40;;;22.00;54.50;;;;;;5061803;28;20534;-79
2021/06/27 06:02:35;;;;;;;8.83;7.37;;;21.90;55.40;;;;;;5062125;28;20466;-79
2021/06/27 06:05:02;;;;;;;7.93;7.33;;;22.10;54.80;;;;;;5041621;28;20446;-78
2021/06/27 06:07:29;;;;;;;7.43;6.83;;;22.40;54.20;;;;;;5041648;28;20443;-79
2021/06/27 06:09:56;;;;;;;7.07;6.57;;;22.90;51.60;;;;;;5045802;28;20476;-79
2021/06/27 06:12:23;;;;;;;8.03;7.03;;;23.30;51.90;;;;;;5047669;28;20559;-79
2021/06/27 06:14:51;;;;;;;7.70;7.10;;;22.90;51.60;;;;;;5060750;28;20474;-80
2021/06/27 06:17:18;;;;;;;7.60;7.00;;;22.30;53.20;;;;;;5078228;23;20479;-82
2021/06/27 06:19:49;;;;;;;7.63;6.83;;;22.40;53.60;;;;;;5029001;28;20424;-80
2021/06/27 06:22:17;;;;;;;6.27;5.77;;;22.90;52.30;;;;;;5028283;28;20506;-81
2021/06/27 06:24:44;;;;;;;6.80;6.20;;;23.80;49.30;;;;;;5025510;28;20455;-80
2021/06/27 06:27:11;;;;;;;6.93;6.33;;;24.20;48.30;;;;;;5034570;28;20467;-82
2021/06/27 06:29:38;;;;;;;7.00;6.50;;;23.70;49.00;;;;;;5018472;28;20486;-81
2021/06/27 06:32:07;;;;;;;7.30;6.70;;;23.80;48.40;;;;;;5017414;28;20482;-81
2021/06/27 06:34:34;;;;;;;6.70;6.00;;;23.50;49.70;;;;;;5023556;28;20454;-78
2021/06/27 06:37:01;;;;;;;6.80;6.20;;;23.10;50.70;;;;;;5027253;28;20499;-81
2021/06/27 06:39:28;;;;;;;6.90;6.30;;;23.10;51.00;;;;;;5019480;28;20488;-80
2021/06/27 06:41:55;;;;;;;6.40;5.90;;;23.60;49.50;;;;;;5019270;28;20460;-81
2021/06/27 06:44:22;;;;;;;6.13;5.53;;;24.10;48.00;;;;;;5002667;28;20895;-80
2021/06/27 06:46:49;;;;;;;7.00;6.30;;;24.50;46.80;;;;;;5004061;28;20482;-81
2021/06/27 06:49:17;;;;;;;10.30;6.50;;;23.60;49.20;;;;;;5018944;28;20468;-81
2021/06/27 06:51:44;;;;;;;6.03;5.50;;;23.60;49.00;;;;;;5020024;28;20882;-81
2021/06/27 06:54:11;;;;;;;7.70;6.27;;;23.50;49.30;;;;;;5019772;28;20440;-80
2021/06/27 06:56:38;;;;;;;6.83;6.23;;;23.50;49.80;;;;;;5023153;28;20453;-79
2021/06/27 06:59:05;;;;;;;5.83;5.33;;;23.70;49.20;;;;;;5030964;28;20474;-81
2021/06/27 07:01:32;;;;;;;6.10;5.60;;;23.90;48.60;;;;;;5028608;28;20429;-82
2021/06/27 07:04:02;;;;;;;5.93;5.53;;;24.20;47.50;;;;;;5025232;28;20458;-82
2021/06/27 07:06:30;;;;;;;6.10;5.70;;;24.20;46.90;;;;;;5030705;28;20435;-80
2021/06/27 07:08:57;;;;;;;5.60;5.10;;;24.20;46.90;;;;;;5036697;28;20447;-81
2021/06/27 07:11:24;;;;;;;6.17;5.60;;;23.80;47.90;;;;;;5036588;28;20450;-80
2021/06/27 07:13:51;;;;;;;5.77;5.20;;;23.40;48.90;;;;;;5033302;28;20443;-81
2021/06/27 07:16:18;;;;;;;6.47;5.97;;;23.40;48.50;;;;;;5028889;28;20456;-82
2021/06/27 07:18:45;;;;;;;5.63;5.23;;;23.60;47.90;;;;;;5034078;28;20514;-80
2021/06/27 07:21:12;;;;;;;6.30;5.70;;;23.80;47.80;;;;;;5031467;28;20500;-81
2021/06/27 07:23:40;;;;;;;5.90;5.40;;;23.60;49.40;;;;;;5032064;28;20436;-81
2021/06/27 07:26:07;;;;;;;5.90;5.50;;;23.60;48.70;;;;;;5031621;28;20429;-82
2021/06/27 07:28:34;;;;;;;6.17;5.57;;;23.50;48.80;;;;;;5031918;28;20448;-82
2021/06/27 07:31:01;;;;;;;5.60;5.10;;;23.60;49.30;;;;;;5032890;28;20451;-81
2021/06/27 07:33:28;;;;;;;6.80;6.20;;;23.80;49.10;;;;;;5029734;28;20454;-81
2021/06/27 07:35:54;;;;;;;6.73;5.23;;;23.60;48.90;;;;;;5027565;28;20455;-80
2021/06/27 07:38:22;;;;;;;6.13;5.53;;;23.80;49.50;;;;;;5023516;28;20497;-80
2021/06/27 07:40:50;;;;;;;6.70;6.10;;;24.00;48.90;;;;;;5024498;28;20428;-81
2021/06/27 07:43:17;;;;;;;6.40;5.90;;;24.20;48.60;;;;;;5031156;28;20436;-81
2021/06/27 07:45:45;;;;;;;5.73;5.23;;;24.00;48.20;;;;;;5025542;28;20426;-81
2021/06/27 07:48:13;;;;;;;6.30;5.70;;;23.90;47.80;;;;;;5021553;28;20470;-82
2021/06/27 07:50:41;;;;;;;6.10;5.53;;;23.90;48.50;;;;;;5020388;28;20450;-81
2021/06/27 07:53:08;;;;;;;6.03;5.57;;;23.80;49.30;;;;;;5020338;28;20496;-81
2021/06/27 07:55:35;;;;;;;5.57;5.17;;;23.70;48.90;;;;;;5014378;28;20450;-82
2021/06/27 07:58:04;;;;;;;7.23;5.83;;;23.90;49.50;;;;;;5005590;28;20460;-81
2021/06/27 08:00:32;;;;;;;5.90;5.30;;;24.00;49.00;;;;;;5018993;28;20453;-82
2021/06/27 08:03:00;;;;;;;5.33;4.90;;;24.00;48.60;;;;;;5020990;28;20440;-81
2021/06/27 08:05:27;;;;;;;6.73;5.70;;;24.10;48.10;;;;;;5023869;28;20454;-81
2021/06/27 08:07:54;;;;;;;5.80;5.30;;;24.20;49.00;;;;;;5029782;28;20489;-81
2021/06/27 08:10:21;;;;;;;5.20;4.70;;;24.40;46.60;;;;;;5033669;28;20433;-80
2021/06/27 08:12:48;;;;;;;5.60;5.10;;;24.60;46.30;;;;;;5023092;28;20460;-79
2021/06/27 08:15:19;;;;;;;5.93;5.43;;;24.60;46.70;;;;;;5016935;28;20492;-78
2021/06/27 08:17:47;;;;;;;5.20;4.80;;;24.70;46.40;;;;;;5035576;28;20501;-78
2021/06/27 08:20:14;;;;;;;4.50;4.20;;;24.70;45.70;;;;;;5027398;28;20413;-79
2021/06/27 08:22:42;;;;;;;5.20;4.80;;;24.90;45.80;;;;;;5039357;28;20458;-79
2021/06/27 08:25:09;;;;;;;5.70;5.20;;;25.20;45.00;;;;;;5021813;28;20836;-79
2021/06/27 08:27:36;;;;;;;4.90;4.60;;;25.10;45.50;;;;;;5014010;28;20553;-78
2021/06/27 08:30:05;;;;;;;7.77;5.03;;;25.20;44.70;;;;;;5018353;28;20538;-79
2021/06/27 08:32:33;;;;;;;5.00;4.70;;;25.20;44.30;;;;;;5020138;28;20426;-80
2021/06/27 08:35:00;;;;;;;5.50;5.07;;;25.20;44.70;;;;;;5025840;28;20462;-80
2021/06/27 08:37:27;;;;;;;4.93;4.60;;;25.50;43.80;;;;;;5022149;28;20445;-79
2021/06/27 08:39:54;;;;;;;5.90;4.17;;;25.30;43.60;;;;;;5021452;28;20890;-79
2021/06/27 08:42:22;;;;;;;4.10;3.80;;;25.30;43.70;;;;;;5015286;28;20483;-78
2021/06/27 08:44:50;;;;;;;4.20;3.93;;;25.50;43.90;;;;;;5016139;28;20446;-79
2021/06/27 08:47:19;;;;;;;5.03;4.63;;;25.80;43.20;;;;;;5016270;28;20435;-78
2021/06/27 08:49:49;;;;;;;5.13;4.73;;;26.00;42.90;;;;;;5019862;28;20495;-78
2021/06/27 08:52:17;;;;;;;6.17;4.27;;;26.20;42.90;;;;;;5013817;28;20453;-79
2021/06/27 08:54:44;;;;;;;4.43;4.13;;;26.50;41.40;;;;;;5018495;28;20420;-79
2021/06/27 08:57:13;;;;;;;4.60;4.30;;;26.50;41.20;;;;;;5007535;28;20554;-78
2021/06/27 08:59:40;;;;;;;4.53;4.20;;;26.50;41.40;;;;;;4998321;28;20999;-78
2021/06/27 09:02:12;;;;;;;4.60;4.30;;;26.80;40.40;;;;;;5000663;28;20585;-79
2021/06/27 09:04:41;;;;;;;4.43;4.13;;;26.90;39.40;;;;;;5000757;28;20537;-79
2021/06/27 09:07:30;;;;;;;4.60;4.20;;;26.80;39.40;;;;;;4999706;28;20463;-79
2021/06/27 09:10:09;;;;;;;4.07;3.77;;;27.20;38.20;;;;;;5019103;28;20437;-79
2021/06/27 09:12:50;;;;;;;4.03;3.73;;;27.00;37.20;;;;;;5020933;28;20535;-80
2021/06/27 09:15:50;;;;;;;4.50;4.20;;;27.00;37.20;;;;;;5020272;28;20451;-80
2021/06/27 09:18:25;;;;;;;4.10;3.80;;;27.00;37.60;;;;;;5015541;28;20473;-79
2021/06/27 09:20:54;;;;;;;4.07;3.77;;;27.10;36.50;;;;;;5022817;28;20443;-78
2021/06/27 09:23:38;;;;;;;4.13;3.90;;;26.90;36.50;;;;;;5022866;28;20491;-79
2021/06/27 09:26:05;;;;;;;4.30;3.90;;;26.80;36.30;;;;;;5028425;28;20497;-78
2021/06/27 09:28:47;;;;;;;4.30;3.90;;;26.90;36.50;;;;;;5025348;28;20458;-78
2021/06/27 09:31:32;;;;;;;4.00;3.80;;;26.70;36.20;;;;;;5003658;28;20476;-79
2021/06/27 09:34:00;;;;;;;3.93;3.73;;;26.80;36.50;;;;;;5020392;28;20464;-79
2021/06/27 09:36:27;;;;;;;4.10;3.77;;;27.10;35.30;;;;;;4995888;28;20432;-79
2021/06/27 09:38:57;;;;;;;4.63;4.33;;;27.30;34.80;;;;;;5009525;28;20485;-78
2021/06/27 09:41:28;;;;;;;4.50;4.20;;;27.60;35.00;;;;;;5007236;28;20445;-79
2021/06/27 09:43:58;;;;;;;5.17;4.77;;;27.80;35.10;;;;;;5010446;28;20564;-79
2021/06/27 09:46:33;;;;;;;5.07;4.67;;;27.60;36.50;;;;;;5012394;28;20459;-79
2021/06/27 09:49:02;;;;;;;4.87;4.57;;;27.60;35.00;;;;;;5015278;28;20457;-79
2021/06/27 09:51:31;;;;;;;4.53;4.13;;;27.90;35.20;;;;;;5007925;28;20506;-79
2021/06/27 09:54:00;;;;;;;8.77;5.17;;;28.10;35.30;;;;;;5010589;28;20504;-78
2021/06/27 09:56:28;;;;;;;4.63;4.33;;;27.90;35.20;;;;;;5019397;28;20433;-79
2021/06/27 09:58:59;;;;;;;4.67;4.27;;;27.70;35.00;;;;;;5021152;28;20952;-79
2021/06/27 10:01:27;;;;;;;4.53;4.13;;;27.70;35.00;;;;;;5023529;28;20429;-78
2021/06/27 10:03:56;;;;;;;4.40;4.07;;;27.70;33.60;;;;;;5023118;28;20437;-79
2021/06/27 10:06:25;;;;;;;3.93;3.60;;;27.90;34.20;;;;;;5017241;28;20434;-78
2021/06/27 10:08:52;;;;;;;4.37;4.07;;;28.60;33.40;;;;;;5015164;28;20425;-79
2021/06/27 10:11:23;;;;;;;5.67;4.30;;;28.40;33.90;;;;;;4996005;28;20892;-80
2021/06/27 10:13:51;;;;;;;4.37;4.07;;;28.90;32.50;;;;;;5020957;28;20452;-79
2021/06/27 10:16:27;;;;;;;4.10;3.80;;;28.70;31.60;;;;;;5015826;28;20496;-79
2021/06/27 10:18:55;;;;;;;4.70;4.30;;;28.70;32.10;;;;;;5018068;28;20866;-79
2021/06/27 10:21:23;;;;;;;4.67;4.37;;;28.30;32.00;;;;;;5014542;28;20961;-78
2021/06/27 10:23:51;;;;;;;5.40;4.10;;;28.50;32.50;;;;;;5022513;28;20456;-79
2021/06/27 10:26:21;;;;;;;4.17;3.87;;;28.90;32.10;;;;;;5015326;28;20446;-78
2021/06/27 10:28:50;;;;;;;4.57;4.20;;;29.40;30.90;;;;;;5001990;28;20430;-78
2021/06/27 10:31:38;;;;;;;4.13;3.83;;;29.00;31.80;;;;;;5015619;28;20415;-78
2021/06/27 10:34:05;;;;;;;4.87;4.50;;;28.80;31.90;;;;;;5027995;28;20460;-79
2021/06/27 10:36:35;;;;;;;4.97;4.57;;;28.90;32.10;;;;;;5036012;28;20422;-78
2021/06/27 10:39:07;;;;;;;4.80;4.30;;;29.10;31.40;;;;;;5035707;28;20543;-79
2021/06/27 10:41:56;;;;;;;4.10;3.80;;;28.90;30.80;;;;;;5035942;28;20439;-78
2021/06/27 10:44:25;;;;;;;3.63;3.43;;;28.70;31.10;;;;;;5024389;28;20743;-78
2021/06/27 10:46:55;;;;;;;4.50;4.20;;;28.90;30.60;;;;;;5020107;28;20479;-79
2021/06/27 10:49:58;;;;;;;7.03;4.37;;;28.50;31.40;;;;;;5019075;28;20463;-78
2021/06/27 10:52:25;;;;;;;4.43;4.13;;;28.60;30.90;;;;;;4995357;28;20447;-77
2021/06/27 10:55:16;;;;;;;5.60;4.10;;;28.60;30.80;;;;;;4996523;28;20494;-77
2021/06/27 10:57:55;;;;;;;4.83;4.53;;;28.80;30.50;;;;;;5019103;28;20514;-78
2021/06/27 11:00:23;;;;;;;4.47;4.10;;;28.90;30.90;;;;;;5016914;28;20486;-77
2021/06/27 11:02:50;;;;;;;4.23;3.83;;;28.30;32.30;;;;;;5017836;28;20805;-77
2021/06/27 11:08:33;;;;;;;4.70;4.40;;;28.60;31.50;;;;;;5007068;28;20445;-79
2021/06/27 11:11:05;;;;;;;4.30;4.00;;;29.10;30.90;;;;;;5029357;28;20487;-80
2021/06/27 11:13:35;;;;;;;4.40;4.07;;;29.30;30.30;;;;;;5011397;28;20457;-81
2021/06/27 11:16:14;;;;;;;4.70;4.30;;;29.40;30.00;;;;;;5028311;28;20461;-81
2021/06/27 11:18:43;;;;;;;4.20;3.80;;;29.50;29.70;;;;;;5021990;28;20465;-79
2021/06/27 11:21:12;;;;;;;7.03;4.10;;;29.90;28.50;;;;;;5022435;28;20425;-79
2021/06/27 11:24:08;;;;;;;4.93;4.53;;;30.10;28.10;;;;;;5018366;28;20436;-82
2021/06/27 11:26:59;;;;;;;4.50;4.20;;;29.30;29.60;;;;;;5021454;28;20471;-80
2021/06/27 11:29:47;;;;;;;4.50;4.10;;;29.00;29.60;;;;;;4987429;28;20492;-79
2021/06/27 11:32:48;;;;;;;4.60;4.20;;;28.70;30.30;;;;;;5024902;28;20457;-81
2021/06/27 11:35:41;;;;;;;4.63;4.03;;;28.60;30.40;;;;;;5022508;28;20439;-80
2021/06/27 11:38:09;;;;;;;4.47;4.07;;;28.60;30.40;;;;;;5022516;28;20581;-80
2021/06/27 11:40:56;;;;;;;4.10;3.80;;;29.10;29.70;;;;;;5024579;28;20476;-79
2021/06/27 11:43:59;;;;;;;4.17;3.87;;;29.00;29.60;;;;;;5036670;28;20439;-78
2021/06/27 11:46:32;;;;;;;4.10;3.80;;;29.00;29.50;;;;;;5040427;28;20435;-78
2021/06/27 11:49:00;;;;;;;4.30;4.10;;;28.90;30.10;;;;;;5038693;28;20447;-79
2021/06/27 11:51:38;;;;;;;4.20;3.90;;;28.80;30.50;;;;;;5034002;28;20433;-80
2021/06/27 11:54:07;;;;;;;4.23;3.83;;;28.60;31.00;;;;;;5030922;28;20450;-80
2021/06/27 11:56:57;;;;;;;4.40;4.10;;;28.40;30.80;;;;;;5029067;28;20450;-80
2021/06/27 11:59:26;;;;;;;4.83;4.53;;;28.50;31.80;;;;;;5032653;28;20509;-81
2021/06/27 12:02:12;;;;;;;4.43;4.13;;;28.90;30.00;;;;;;5033568;28;20470;-80
2021/06/27 12:04:41;;;;;;;4.40;4.00;;;28.90;29.80;;;;;;5031229;28;20955;-81
2021/06/27 12:07:33;;;;;;;3.50;3.30;;;29.10;30.20;;;;;;5028204;28;20475;-78
2021/06/27 12:10:02;;;;;;;5.13;4.77;;;29.10;30.20;;;;;;5025256;28;20458;-80
2021/06/27 12:12:40;;;;;;;4.47;4.17;;;28.70;30.10;;;;;;5024595;28;20516;-80
2021/06/27 12:15:09;;;;;;;4.77;4.30;;;28.70;30.10;;;;;;5025490;28;20517;-80
2021/06/27 12:17:37;;;;;;;4.40;4.10;;;29.00;29.70;;;;;;5051719;23;20527;-78
2021/06/27 12:20:05;;;;;;;4.40;4.10;;;29.20;29.80;;;;;;5065793;28;20456;-79
2021/06/27 12:22:32;;;;;;;6.03;4.23;;;29.20;29.40;;;;;;5051952;28;20435;-79
2021/06/27 12:25:04;;;;;;;4.33;4.03;;;29.50;29.10;;;;;;5053095;28;20433;-79
2021/06/27 12:27:32;;;;;;;4.60;4.20;;;29.50;28.80;;;;;;5055654;28;20471;-79
2021/06/27 12:29:58;;;;;;;4.13;3.93;;;29.40;28.90;;;;;;5043730;28;20425;-79
2021/06/27 12:32:25;;;;;;;4.00;3.70;;;29.30;29.30;;;;;;5046427;28;20442;-79
2021/06/27 12:34:56;;;;;;;3.40;3.20;;;29.40;28.80;;;;;;5047843;28;20430;-79
2021/06/27 12:37:27;;;;;;;4.23;3.93;;;29.60;28.70;;;;;;5046424;28;20445;-79
2021/06/27 12:39:54;;;;;;;4.10;3.80;;;29.60;29.20;;;;;;5044020;28;20489;-79
2021/06/27 12:42:21;;;;;;;4.17;3.87;;;29.40;27.20;;;;;;5038112;28;20427;-79
2021/06/27 12:44:48;;;;;;;3.73;3.43;;;29.40;26.70;;;;;;5032620;28;20453;-79
2021/06/27 12:47:28;;;;;;;3.30;3.10;;;29.60;26.80;;;;;;5048223;28;20506;-80
2021/06/27 12:49:56;;;;;;;4.10;3.30;;;30.00;27.00;;;;;;5045716;28;20499;-81
2021/06/27 12:52:25;;;;;;;3.93;3.63;;;30.10;27.00;;;;;;5044200;28;20453;-80